createdAt,value
2017-10-31T00:00:59.225Z,9.30
2017-10-31T00:03:25.238Z,9.30
2017-10-31T00:05:51.965Z,9.20
2017-10-31T00:08:18.065Z,9.20
2017-10-31T00:10:44.118Z,9.20
2017-10-31T00:13:10.857Z,9.30
2017-10-31T00:15:37.809Z,9.20
2017-10-31T00:18:04.606Z,9.30
2017-10-31T00:20:30.584Z,9.30
2017-10-31T00:22:56.593Z,9.40
2017-10-31T00:25:22.582Z,9.40
2017-10-31T00:27:48.595Z,9.40
2017-10-31T00:30:14.633Z,9.30
2017-10-31T00:32:41.547Z,9.30
2017-10-31T00:35:07.672Z,9.30
2017-10-31T00:37:34.145Z,9.30
2017-10-31T00:40:00.888Z,9.10
2017-10-31T00:42:26.882Z,9.10
2017-10-31T00:44:52.866Z,9.30
2017-10-31T00:47:18.845Z,9.30
2017-10-31T00:49:45.608Z,9.50
2017-10-31T00:52:11.589Z,9.40
2017-10-31T00:54:38.317Z,9.40
2017-10-31T00:57:04.567Z,9.40
2017-10-31T00:59:31.289Z,9.20
2017-10-31T01:01:57.261Z,9.20
2017-10-31T01:04:23.506Z,9.10
2017-10-31T01:06:49.500Z,9.20
2017-10-31T01:09:15.493Z,9.10
2017-10-31T01:11:42.530Z,9.20
2017-10-31T01:14:09.228Z,9.10
2017-10-31T01:16:35.240Z,9.00
2017-10-31T01:19:01.240Z,8.90
2017-10-31T01:21:27.214Z,8.90
2017-10-31T01:23:53.185Z,8.90
2017-10-31T01:26:19.180Z,9.00
2017-10-31T01:28:45.162Z,8.90
2017-10-31T01:31:11.164Z,8.80
2017-10-31T01:33:37.178Z,9.00
2017-10-31T01:36:03.156Z,9.00
2017-10-31T01:38:29.897Z,9.00
2017-10-31T01:40:55.906Z,8.90
2017-10-31T01:43:22.624Z,9.00
2017-10-31T01:45:48.610Z,9.00
2017-10-31T01:48:14.632Z,8.80
2017-10-31T01:50:40.636Z,8.90
2017-10-31T01:53:06.621Z,8.90
2017-10-31T01:55:32.840Z,8.90
2017-10-31T01:57:58.828Z,8.90
2017-10-31T02:00:24.837Z,8.90
2017-10-31T02:02:50.824Z,8.80
2017-10-31T02:05:17.565Z,8.90
2017-10-31T02:07:44.411Z,8.90
2017-10-31T02:10:10.382Z,8.80
2017-10-31T02:12:36.393Z,8.90
2017-10-31T02:15:02.412Z,8.90
2017-10-31T02:17:28.392Z,8.90
2017-10-31T02:19:54.390Z,8.90
2017-10-31T02:22:20.373Z,8.90
2017-10-31T02:24:46.385Z,8.90
2017-10-31T02:27:12.364Z,8.80
2017-10-31T02:29:39.072Z,8.80
2017-10-31T02:32:05.099Z,8.80
2017-10-31T02:34:31.097Z,8.90
2017-10-31T02:36:57.181Z,8.90
2017-10-31T02:39:23.177Z,8.90
2017-10-31T02:41:49.138Z,8.90
2017-10-31T02:44:15.147Z,9.00
2017-10-31T02:46:41.781Z,8.90
2017-10-31T02:49:07.774Z,9.00
2017-10-31T02:51:34.515Z,8.90
2017-10-31T02:54:01.825Z,9.00
2017-10-31T02:56:27.794Z,9.00
2017-10-31T02:58:54.117Z,9.00
2017-10-31T03:01:20.851Z,8.90
2017-10-31T03:03:47.596Z,8.80
2017-10-31T03:06:14.352Z,8.80
2017-10-31T03:08:40.345Z,8.80
2017-10-31T03:11:07.077Z,9.00
2017-10-31T03:13:33.113Z,9.00
2017-10-31T03:15:59.861Z,9.00
2017-10-31T03:18:26.617Z,9.00
2017-10-31T03:20:52.713Z,9.00
2017-10-31T03:23:19.434Z,9.00
2017-10-31T03:25:45.436Z,9.00
2017-10-31T03:28:11.798Z,9.00
2017-10-31T03:30:38.558Z,9.00
2017-10-31T03:33:04.550Z,9.00
2017-10-31T03:35:30.780Z,8.90
2017-10-31T03:37:57.500Z,9.00
2017-10-31T03:40:23.469Z,9.00
2017-10-31T03:42:49.577Z,8.90
2017-10-31T03:45:15.573Z,8.90
2017-10-31T03:47:41.556Z,9.00
2017-10-31T03:50:07.550Z,9.10
2017-10-31T03:52:33.544Z,9.00
2017-10-31T03:55:00.277Z,8.90
2017-10-31T03:57:26.562Z,8.90
2017-10-31T03:59:52.588Z,8.90
2017-10-31T04:02:18.646Z,8.80
2017-10-31T04:04:44.688Z,8.80
2017-10-31T04:07:10.675Z,8.80
2017-10-31T04:09:37.456Z,8.80
2017-10-31T04:12:03.476Z,8.80
2017-10-31T04:14:29.459Z,8.80
2017-10-31T04:16:55.441Z,8.90
2017-10-31T04:19:21.442Z,8.80
2017-10-31T04:21:47.436Z,8.70
2017-10-31T04:24:14.180Z,8.70
2017-10-31T04:26:40.898Z,8.80
2017-10-31T04:29:06.899Z,8.80
2017-10-31T04:31:32.909Z,8.80
2017-10-31T04:33:58.892Z,8.70
2017-10-31T04:36:24.888Z,8.70
2017-10-31T04:38:51.439Z,8.80
2017-10-31T04:41:18.162Z,8.70
2017-10-31T04:43:44.225Z,8.70
2017-10-31T04:46:10.212Z,8.60
2017-10-31T04:48:36.928Z,8.60
2017-10-31T04:51:02.974Z,8.60
2017-10-31T04:53:29.694Z,8.60
2017-10-31T04:55:55.680Z,8.60
2017-10-31T04:58:21.788Z,8.60
2017-10-31T05:00:47.786Z,8.60
2017-10-31T05:03:14.500Z,8.80
2017-10-31T05:05:40.588Z,8.70
2017-10-31T05:08:06.645Z,8.80
2017-10-31T05:10:32.738Z,8.80
2017-10-31T05:12:58.756Z,8.70
2017-10-31T05:15:24.771Z,8.50
2017-10-31T05:17:50.794Z,8.60
2017-10-31T05:20:16.777Z,8.60
2017-10-31T05:22:43.510Z,8.60
2017-10-31T05:25:10.241Z,8.70
2017-10-31T05:27:36.976Z,8.70
2017-10-31T05:30:02.950Z,8.70
2017-10-31T05:32:29.021Z,8.60
2017-10-31T05:34:55.732Z,8.50
2017-10-31T05:37:21.705Z,8.50
2017-10-31T05:39:47.677Z,8.50
2017-10-31T05:42:14.027Z,8.60
2017-10-31T05:44:40.744Z,8.70
2017-10-31T05:47:06.721Z,8.70
2017-10-31T05:49:33.019Z,8.80
2017-10-31T05:52:00.034Z,8.60
2017-10-31T05:54:26.064Z,8.60
2017-10-31T05:56:52.817Z,8.60
2017-10-31T05:59:19.806Z,8.50
2017-10-31T06:01:45.858Z,8.50
2017-10-31T06:04:11.881Z,8.50
2017-10-31T06:06:37.873Z,8.60
2017-10-31T06:09:03.877Z,8.50
2017-10-31T06:11:30.170Z,8.50
2017-10-31T06:13:56.886Z,8.70
2017-10-31T06:16:22.868Z,8.60
2017-10-31T06:18:49.061Z,8.60
2017-10-31T06:21:15.785Z,8.60
2017-10-31T06:23:48.799Z,8.60
2017-10-31T06:26:20.924Z,8.50
2017-10-31T06:28:53.097Z,8.70
2017-10-31T06:31:26.089Z,8.70
2017-10-31T06:33:52.841Z,8.60
2017-10-31T06:36:19.576Z,8.60
2017-10-31T06:38:46.327Z,8.60
2017-10-31T06:41:13.048Z,8.60
2017-10-31T06:43:39.802Z,8.70
2017-10-31T06:46:05.781Z,8.60
2017-10-31T06:48:31.770Z,8.70
2017-10-31T06:50:57.772Z,8.60
2017-10-31T06:53:23.748Z,8.70
2017-10-31T06:55:51.517Z,8.80
2017-10-31T06:58:17.484Z,8.80
2017-10-31T07:00:43.475Z,8.90
2017-10-31T07:03:10.262Z,9.10
2017-10-31T07:05:36.241Z,9.10
2017-10-31T07:08:02.233Z,9.10
2017-10-31T07:10:28.215Z,9.20
2017-10-31T07:12:54.232Z,9.20
2017-10-31T07:15:20.208Z,9.10
2017-10-31T07:17:46.961Z,9.20
2017-10-31T07:20:12.933Z,9.20
2017-10-31T07:22:38.919Z,9.20
2017-10-31T07:25:04.949Z,8.90
2017-10-31T07:27:31.687Z,8.90
2017-10-31T07:29:57.661Z,8.90
2017-10-31T07:32:24.542Z,8.90
2017-10-31T07:34:50.554Z,8.90
2017-10-31T07:37:16.549Z,8.90
2017-10-31T07:39:43.284Z,8.90
2017-10-31T07:42:16.709Z,8.90
2017-10-31T07:44:43.792Z,8.90
2017-10-31T07:47:09.770Z,8.90
2017-10-31T07:49:38.084Z,8.80
2017-10-31T07:52:04.465Z,8.80
2017-10-31T07:54:30.453Z,8.90
2017-10-31T07:56:56.425Z,8.80
2017-10-31T07:59:22.399Z,8.80
2017-10-31T08:01:48.373Z,8.80
2017-10-31T08:04:14.368Z,8.80
2017-10-31T08:06:41.200Z,8.90
2017-10-31T08:09:08.125Z,8.90
2017-10-31T08:11:34.099Z,8.90
2017-10-31T08:14:00.230Z,9.00
2017-10-31T08:16:26.211Z,9.00
2017-10-31T08:18:52.948Z,8.90
2017-10-31T08:21:19.733Z,8.90
2017-10-31T08:23:45.776Z,8.90
2017-10-31T08:26:11.753Z,8.90
2017-10-31T08:28:37.989Z,9.00
2017-10-31T08:31:04.133Z,9.00
2017-10-31T08:33:30.133Z,9.00
2017-10-31T08:35:56.140Z,8.90
2017-10-31T08:38:22.153Z,9.00
2017-10-31T08:40:48.126Z,8.80
2017-10-31T08:43:14.109Z,8.70
2017-10-31T08:45:40.151Z,8.80
2017-10-31T08:48:06.158Z,8.80
2017-10-31T08:50:32.189Z,8.90
2017-10-31T08:52:58.179Z,9.10
2017-10-31T08:55:24.254Z,9.10
2017-10-31T08:57:50.269Z,9.20
2017-10-31T09:00:17.220Z,9.10
2017-10-31T09:02:43.205Z,9.20
2017-10-31T09:05:09.194Z,9.30
2017-10-31T09:07:35.980Z,9.30
2017-10-31T09:10:01.942Z,9.30
2017-10-31T09:12:28.740Z,9.40
2017-10-31T09:14:54.758Z,9.40
2017-10-31T09:17:20.742Z,9.40
2017-10-31T09:19:47.497Z,9.50
2017-10-31T09:22:13.511Z,9.50
2017-10-31T09:24:39.550Z,9.50
2017-10-31T09:27:09.105Z,9.50
2017-10-31T09:29:35.321Z,9.50
2017-10-31T09:32:01.753Z,9.40
2017-10-31T09:34:30.446Z,9.50
2017-10-31T09:36:57.645Z,9.50
2017-10-31T09:39:25.761Z,9.50
2017-10-31T09:42:07.192Z,9.50
2017-10-31T09:44:33.205Z,9.50
2017-10-31T09:47:03.029Z,9.50
2017-10-31T09:49:29.058Z,9.60
2017-10-31T09:51:55.042Z,9.50
2017-10-31T09:54:22.547Z,9.60
2017-10-31T09:56:48.549Z,9.60
2017-10-31T09:59:15.903Z,9.60
2017-10-31T10:01:42.722Z,9.70
2017-10-31T10:04:16.295Z,9.70
2017-10-31T10:06:43.040Z,9.70
2017-10-31T10:09:09.756Z,9.70
2017-10-31T10:11:35.849Z,9.70
2017-10-31T10:14:01.946Z,9.70
2017-10-31T10:16:28.859Z,9.60
2017-10-31T10:18:55.773Z,9.60
2017-10-31T10:21:22.858Z,9.60
2017-10-31T10:23:52.097Z,9.80
2017-10-31T10:26:18.351Z,9.80
2017-10-31T10:28:44.344Z,9.80
2017-10-31T10:31:10.445Z,9.80
2017-10-31T10:33:36.432Z,9.80
2017-10-31T10:36:02.445Z,9.90
2017-10-31T10:38:28.792Z,10.00
2017-10-31T10:40:56.289Z,10.10
2017-10-31T10:43:22.306Z,10.10
2017-10-31T10:45:52.628Z,10.10
2017-10-31T10:48:18.666Z,10.10
2017-10-31T10:50:44.653Z,10.00
2017-10-31T10:53:10.645Z,9.90
2017-10-31T10:55:36.675Z,9.90
2017-10-31T10:58:07.780Z,10.00
2017-10-31T11:00:39.997Z,9.90
2017-10-31T11:03:06.003Z,9.90
2017-10-31T11:05:32.769Z,9.80
2017-10-31T11:07:58.761Z,9.80
2017-10-31T11:10:25.507Z,9.80
2017-10-31T11:12:52.253Z,9.80
2017-10-31T11:15:18.973Z,9.80
2017-10-31T11:17:45.717Z,9.80
2017-10-31T11:20:12.477Z,9.80
2017-10-31T11:22:38.462Z,9.80
2017-10-31T11:25:05.189Z,9.80
2017-10-31T11:27:31.835Z,9.80
2017-10-31T11:29:57.818Z,9.80
2017-10-31T11:32:24.081Z,9.90
2017-10-31T11:34:51.796Z,9.90
2017-10-31T11:37:17.811Z,9.80
2017-10-31T11:39:45.425Z,9.90
2017-10-31T11:42:22.638Z,9.90
2017-10-31T11:44:48.626Z,10.00
2017-10-31T11:47:14.602Z,9.90
2017-10-31T11:49:48.383Z,10.10
2017-10-31T11:52:14.762Z,10.30
2017-10-31T11:54:40.796Z,10.40
2017-10-31T11:57:06.777Z,10.20
2017-10-31T11:59:33.104Z,10.10
2017-10-31T12:01:59.113Z,10.20
2017-10-31T12:04:25.477Z,10.20
2017-10-31T12:06:51.477Z,10.10
2017-10-31T12:09:17.510Z,10.10
2017-10-31T12:11:48.106Z,10.20
2017-10-31T12:14:14.162Z,10.10
2017-10-31T12:16:40.137Z,10.10
2017-10-31T12:19:07.038Z,10.20
2017-10-31T12:21:33.242Z,10.20
2017-10-31T12:23:59.299Z,10.20
2017-10-31T12:26:33.865Z,10.10
2017-10-31T12:28:59.849Z,10.10
2017-10-31T12:31:25.841Z,10.00
2017-10-31T12:33:53.023Z,10.10
2017-10-31T12:36:20.378Z,10.10
2017-10-31T12:38:47.459Z,10.20
2017-10-31T12:41:13.502Z,10.10
2017-10-31T12:43:39.941Z,10.20
2017-10-31T12:46:05.981Z,10.20
2017-10-31T12:48:31.986Z,10.20
2017-10-31T12:50:57.970Z,10.20
2017-10-31T12:53:23.953Z,10.30
2017-10-31T12:55:49.969Z,10.30
2017-10-31T12:58:15.953Z,10.40
2017-10-31T13:00:41.953Z,10.40
2017-10-31T13:03:07.997Z,10.20
2017-10-31T13:05:33.976Z,10.30
2017-10-31T13:08:00.699Z,10.30
2017-10-31T13:10:26.706Z,10.30
2017-10-31T13:12:52.702Z,10.30
2017-10-31T13:15:18.678Z,10.30
2017-10-31T13:17:45.402Z,10.30
2017-10-31T13:20:12.176Z,10.30
2017-10-31T13:22:38.368Z,10.30
2017-10-31T13:25:04.340Z,10.40
2017-10-31T13:27:32.085Z,10.40
2017-10-31T13:30:01.173Z,10.40
2017-10-31T13:32:29.253Z,10.40
2017-10-31T13:34:57.901Z,10.50
2017-10-31T13:37:25.690Z,10.40
2017-10-31T13:39:53.030Z,10.40
2017-10-31T13:42:20.904Z,10.50
2017-10-31T13:44:46.922Z,10.50
2017-10-31T13:47:13.234Z,10.50
2017-10-31T13:49:40.425Z,10.40
2017-10-31T13:52:12.067Z,10.40
2017-10-31T13:54:38.089Z,10.40
2017-10-31T13:57:04.078Z,10.40
2017-10-31T13:59:31.500Z,10.40
2017-10-31T14:01:58.145Z,10.40
2017-10-31T14:04:24.790Z,10.40
2017-10-31T14:06:52.248Z,10.40
2017-10-31T14:09:19.993Z,10.50
2017-10-31T14:11:46.976Z,10.50
2017-10-31T14:14:13.888Z,10.40
2017-10-31T14:16:39.883Z,10.40
2017-10-31T14:19:05.853Z,10.50
2017-10-31T14:21:33.406Z,10.40
2017-10-31T14:24:00.129Z,10.40
2017-10-31T14:26:26.137Z,10.40
2017-10-31T14:28:52.393Z,10.30
2017-10-31T14:31:19.103Z,10.40
2017-10-31T14:33:45.123Z,10.40
2017-10-31T14:36:11.777Z,10.50
2017-10-31T14:38:37.769Z,10.50
2017-10-31T14:41:03.749Z,10.40
2017-10-31T14:43:29.720Z,10.40
2017-10-31T14:45:55.709Z,10.50
2017-10-31T14:48:21.705Z,10.50
2017-10-31T14:50:47.735Z,10.50
2017-10-31T14:53:13.705Z,10.40
2017-10-31T14:55:39.681Z,10.50
2017-10-31T14:58:05.679Z,10.50
2017-10-31T15:00:32.397Z,10.50
2017-10-31T15:02:58.385Z,10.50
2017-10-31T15:05:24.523Z,10.40
2017-10-31T15:07:50.517Z,10.40
2017-10-31T15:10:16.496Z,10.40
2017-10-31T15:12:43.236Z,10.40
2017-10-31T15:15:09.958Z,10.40
2017-10-31T15:17:35.934Z,10.30
2017-10-31T15:20:01.953Z,10.30
2017-10-31T15:22:27.958Z,10.40
2017-10-31T15:24:53.925Z,10.30
2017-10-31T15:27:20.273Z,10.30
2017-10-31T15:29:46.985Z,10.50
2017-10-31T15:32:12.949Z,10.50
2017-10-31T15:34:39.689Z,10.30
2017-10-31T15:37:07.753Z,10.40
2017-10-31T15:39:34.498Z,10.30
2017-10-31T15:42:00.535Z,10.30
2017-10-31T15:44:26.518Z,10.40
2017-10-31T15:46:52.502Z,10.30
2017-10-31T15:49:18.494Z,10.20
2017-10-31T15:51:44.473Z,10.20
2017-10-31T15:54:10.441Z,10.30
2017-10-31T15:56:36.627Z,10.40
2017-10-31T15:59:02.655Z,10.30
2017-10-31T16:01:29.391Z,10.30
2017-10-31T16:03:56.129Z,10.40
2017-10-31T16:06:23.108Z,10.40
2017-10-31T16:08:49.100Z,10.40
2017-10-31T16:11:15.846Z,10.40
2017-10-31T16:13:41.839Z,10.40
2017-10-31T16:16:07.837Z,10.40
2017-10-31T16:18:33.833Z,10.40
2017-10-31T16:20:59.814Z,10.40
2017-10-31T16:23:26.545Z,10.30
2017-10-31T16:25:52.570Z,10.30
2017-10-31T16:28:18.550Z,10.30
2017-10-31T16:30:44.545Z,10.40
2017-10-31T16:33:10.549Z,10.30
2017-10-31T16:35:37.281Z,10.20
2017-10-31T16:38:04.025Z,10.20
2017-10-31T16:40:30.748Z,10.30
2017-10-31T16:42:57.479Z,10.20
2017-10-31T16:45:23.463Z,10.20
2017-10-31T16:47:50.450Z,10.30
2017-10-31T16:50:16.441Z,10.20
2017-10-31T16:52:42.425Z,10.30
2017-10-31T16:55:08.420Z,10.20
2017-10-31T16:57:35.160Z,10.30
2017-10-31T17:00:01.909Z,10.30
2017-10-31T17:02:28.843Z,10.30
2017-10-31T17:04:55.565Z,10.30
2017-10-31T17:07:21.603Z,10.20
2017-10-31T17:09:48.329Z,10.30
2017-10-31T17:12:14.303Z,10.30
2017-10-31T17:14:40.281Z,10.40
2017-10-31T17:17:07.021Z,10.40
2017-10-31T17:19:33.732Z,10.40
2017-10-31T17:21:59.710Z,10.40
2017-10-31T17:24:25.723Z,10.40
2017-10-31T17:26:51.734Z,10.40
2017-10-31T17:29:18.492Z,10.50
2017-10-31T17:31:44.533Z,10.40
2017-10-31T17:34:10.811Z,10.40
2017-10-31T17:36:36.813Z,10.30
2017-10-31T17:39:03.593Z,10.30
2017-10-31T17:41:29.641Z,10.30
2017-10-31T17:43:55.672Z,10.30
2017-10-31T17:46:21.658Z,10.40
2017-10-31T17:48:47.660Z,10.40
2017-10-31T17:51:13.669Z,10.40
2017-10-31T17:53:40.478Z,10.50
2017-10-31T17:56:06.530Z,10.50
2017-10-31T17:58:33.262Z,10.40
2017-10-31T18:00:59.284Z,10.40
2017-10-31T18:03:25.756Z,10.40
2017-10-31T18:05:51.762Z,10.40
2017-10-31T18:08:18.501Z,10.50
2017-10-31T18:10:45.267Z,10.50
2017-10-31T18:13:11.261Z,10.50
2017-10-31T18:15:38.002Z,10.50
2017-10-31T18:18:04.331Z,10.50
2017-10-31T18:20:31.052Z,10.50
2017-10-31T18:22:57.774Z,10.50
2017-10-31T18:25:23.794Z,10.50
2017-10-31T18:27:51.306Z,10.50
2017-10-31T18:30:17.310Z,10.50
2017-10-31T18:32:43.543Z,10.60
2017-10-31T18:35:09.547Z,10.60
2017-10-31T18:37:35.532Z,10.50
2017-10-31T18:40:01.583Z,10.60
2017-10-31T18:42:28.324Z,10.50
2017-10-31T18:44:55.054Z,10.50
2017-10-31T18:47:22.106Z,10.50
2017-10-31T18:49:48.836Z,10.40
2017-10-31T18:52:14.822Z,10.40
2017-10-31T18:54:41.101Z,10.30
2017-10-31T18:57:07.833Z,10.30
2017-10-31T18:59:35.342Z,10.40
2017-10-31T19:02:01.405Z,10.40
2017-10-31T19:04:28.175Z,10.30
2017-10-31T19:06:54.169Z,10.30
2017-10-31T19:09:20.922Z,10.20
2017-10-31T19:11:47.649Z,10.20
2017-10-31T19:14:14.405Z,10.20
2017-10-31T19:16:40.428Z,10.20
2017-10-31T19:19:06.439Z,10.10
2017-10-31T19:21:33.169Z,10.20
2017-10-31T19:23:59.889Z,10.10
2017-10-31T19:26:26.194Z,10.10
2017-10-31T19:28:52.186Z,10.10
2017-10-31T19:31:18.164Z,10.10
2017-10-31T19:33:44.180Z,10.10
2017-10-31T19:36:10.173Z,10.10
2017-10-31T19:38:36.175Z,10.10
2017-10-31T19:41:02.173Z,10.20
2017-10-31T19:43:28.186Z,10.20
2017-10-31T19:45:54.917Z,10.10
2017-10-31T19:48:21.962Z,10.20
2017-10-31T19:50:48.692Z,10.20
2017-10-31T19:53:14.705Z,10.20
2017-10-31T19:55:40.824Z,10.20
2017-10-31T19:58:06.821Z,10.20
2017-10-31T20:00:33.383Z,10.20
2017-10-31T20:02:59.392Z,10.10
2017-10-31T20:07:58.153Z,10.10
2017-10-31T20:10:24.238Z,10.10
2017-10-31T20:12:51.894Z,10.10
2017-10-31T20:15:17.890Z,10.10
2017-10-31T20:17:44.251Z,10.10
2017-10-31T20:20:10.290Z,10.20
2017-10-31T20:22:37.002Z,10.20
2017-10-31T20:25:02.989Z,10.20
2017-10-31T20:27:29.082Z,10.10
2017-10-31T20:29:55.081Z,10.20
2017-10-31T20:32:21.834Z,10.20
2017-10-31T20:34:48.624Z,10.20
2017-10-31T20:37:14.987Z,10.20
2017-10-31T20:39:42.445Z,10.10
2017-10-31T20:42:09.204Z,10.00
2017-10-31T20:44:35.330Z,10.00
2017-10-31T20:47:01.333Z,10.10
2017-10-31T20:49:28.068Z,10.00
2017-10-31T20:51:55.121Z,10.00
2017-10-31T20:54:21.950Z,10.00
2017-10-31T20:56:48.605Z,10.10
2017-10-31T20:59:14.625Z,10.10
2017-10-31T21:01:41.362Z,10.10
2017-10-31T21:04:08.093Z,10.10
2017-10-31T21:06:35.125Z,10.10
2017-10-31T21:09:01.110Z,10.10
2017-10-31T21:11:27.246Z,10.10
2017-10-31T21:13:53.404Z,10.00
2017-10-31T21:16:20.122Z,10.10
2017-10-31T21:18:46.077Z,10.10
2017-10-31T21:21:12.324Z,10.00
2017-10-31T21:23:38.301Z,10.00
2017-10-31T21:26:04.632Z,10.00
2017-10-31T21:28:30.609Z,10.10
2017-10-31T21:30:56.576Z,10.00
2017-10-31T21:33:23.309Z,10.10
2017-10-31T21:35:49.546Z,10.00
2017-10-31T21:38:16.260Z,10.00
2017-10-31T21:40:42.256Z,10.00
2017-10-31T21:43:08.281Z,10.10
2017-10-31T21:45:34.253Z,10.10
2017-10-31T21:48:01.035Z,10.10
2017-10-31T21:50:27.201Z,10.00
2017-10-31T21:52:53.853Z,10.10
2017-10-31T21:55:19.817Z,10.10
2017-10-31T21:57:45.791Z,10.00
2017-10-31T22:00:12.525Z,10.00
2017-10-31T22:02:39.249Z,10.00
2017-10-31T22:05:05.251Z,10.00
2017-10-31T22:07:31.231Z,10.00
2017-10-31T22:09:57.428Z,10.00
2017-10-31T22:12:23.590Z,10.00
2017-10-31T22:14:49.588Z,10.00
2017-10-31T22:17:16.331Z,10.00
2017-10-31T22:19:43.053Z,9.90
2017-10-31T22:22:09.772Z,9.90
2017-10-31T22:24:35.775Z,9.90
2017-10-31T22:27:01.740Z,9.90
2017-10-31T22:29:28.478Z,10.00
2017-10-31T22:31:55.213Z,9.90
2017-10-31T22:34:21.937Z,9.90
2017-10-31T22:36:47.914Z,9.90
2017-10-31T22:39:13.972Z,10.00
2017-10-31T22:41:39.946Z,10.00
2017-10-31T22:44:05.932Z,9.90
2017-10-31T22:46:31.946Z,9.90
2017-10-31T22:48:57.949Z,9.90
2017-10-31T22:51:23.931Z,9.90
2017-10-31T22:53:50.113Z,9.90
2017-10-31T22:56:16.086Z,10.10
2017-10-31T22:58:42.078Z,10.00
2017-10-31T23:01:08.804Z,10.00
2017-10-31T23:03:35.532Z,10.00
2017-10-31T23:06:01.497Z,10.00
2017-10-31T23:08:27.465Z,10.00
2017-10-31T23:10:54.973Z,9.90
2017-10-31T23:13:20.980Z,9.90
2017-10-31T23:15:46.937Z,10.00
2017-10-31T23:18:12.917Z,9.90
2017-10-31T23:20:39.629Z,10.00
2017-10-31T23:23:05.665Z,10.00
2017-10-31T23:25:32.490Z,10.00
2017-10-31T23:27:58.478Z,10.00
2017-10-31T23:30:24.470Z,10.10
2017-10-31T23:32:50.445Z,10.10
2017-10-31T23:35:16.427Z,10.00
2017-10-31T23:37:42.625Z,10.00
2017-10-31T23:40:09.332Z,10.00
2017-10-31T23:42:35.317Z,10.00
2017-10-31T23:45:01.305Z,9.90
2017-10-31T23:47:27.285Z,10.00
2017-10-31T23:49:53.271Z,10.00
2017-10-31T23:52:19.575Z,10.00
2017-10-31T23:54:45.551Z,10.00
2017-10-31T23:57:11.552Z,10.00
2017-10-31T23:59:37.602Z,10.00
